Time;durP1;ratioP1;P1;durP2;ratioP2;P2;SDS_P1;SDS_P2;PMS_P1;PMS_P2;Temp;Humidity;BMP_temperature;BMP_pressure;BME280_temperature;BME280_humidity;BME280_pressure;Samples;Min_cycle;Max_cycle;Signal;HPM_P1;HPM_P2
2022/12/29 00:01:34;;;;;;;8.45;6.82;;;10.30;99.90;;;;;;6240367;23;20016;-71
2022/12/29 00:04:00;;;;;;;9.20;6.75;;;10.30;99.90;;;;;;6240845;22;20012;-71
2022/12/29 00:06:26;;;;;;;8.32;6.75;;;10.30;99.90;;;;;;6240257;23;20020;-71
2022/12/29 00:08:52;;;;;;;8.00;6.50;;;10.30;99.90;;;;;;6242179;22;20012;-71
2022/12/29 00:11:21;;;;;;;9.10;6.93;;;10.30;99.90;;;;;;6243196;23;20008;-71
2022/12/29 00:16:34;;;;;;;9.13;6.68;;;10.30;99.90;;;;;;6241833;23;20651;-70
2022/12/29 00:19:00;;;;;;;8.50;7.15;;;10.30;99.90;;;;;;6240080;23;20432;-71
2022/12/29 00:35:24;;;;;;;9.93;7.10;;;10.40;99.90;;;;;;6241738;23;20346;-71
2022/12/29 00:46:03;;;;;;;8.48;6.45;;;10.40;99.90;;;;;;6242917;23;20016;-71
2022/12/29 00:51:13;;;;;;;9.13;6.22;;;10.40;99.90;;;;;;6243444;23;20039;-70
2022/12/29 00:53:38;;;;;;;8.55;6.10;;;10.40;99.90;;;;;;6242205;23;20008;-70
2022/12/29 00:56:04;;;;;;;9.30;6.20;;;10.40;99.90;;;;;;6240469;23;20319;-70
2022/12/29 00:58:30;;;;;;;8.27;6.20;;;10.40;99.90;;;;;;6243727;23;20012;-70
2022/12/29 01:01:03;;;;;;;9.35;6.18;;;10.50;99.90;;;;;;6242304;23;20016;-71
2022/12/29 01:03:29;;;;;;;8.30;6.03;;;10.40;99.90;;;;;;6241516;23;20425;-71
2022/12/29 01:05:55;;;;;;;8.73;6.13;;;10.50;99.90;;;;;;6241603;23;20012;-71
2022/12/29 01:08:20;;;;;;;8.10;5.75;;;10.50;99.90;;;;;;6241062;23;20087;-71
2022/12/29 01:10:46;;;;;;;7.70;5.57;;;10.50;99.90;;;;;;6242804;23;20483;-70
2022/12/29 01:13:11;;;;;;;8.10;5.65;;;10.50;99.90;;;;;;6243530;23;20020;-71
2022/12/29 01:15:37;;;;;;;8.07;5.95;;;10.50;99.90;;;;;;6242793;23;20015;-70
2022/12/29 01:18:02;;;;;;;8.07;5.35;;;10.50;99.90;;;;;;6242838;23;20329;-71
2022/12/29 01:20:28;;;;;;;7.30;5.07;;;10.50;99.90;;;;;;6242463;23;20019;-70
2022/12/29 01:22:54;;;;;;;8.35;5.82;;;10.50;99.90;;;;;;6242862;23;20012;-70
2022/12/29 01:25:20;;;;;;;7.30;5.10;;;10.50;99.90;;;;;;6242887;22;20016;-71
2022/12/29 01:27:45;;;;;;;7.63;5.30;;;10.50;99.90;;;;;;6240843;23;20029;-71
2022/12/29 01:30:11;;;;;;;7.45;4.70;;;10.50;99.90;;;;;;6241910;23;20040;-71
2022/12/29 01:32:38;;;;;;;6.93;4.60;;;10.60;99.90;;;;;;6242894;23;20499;-70
2022/12/29 01:35:04;;;;;;;7.78;4.75;;;10.60;99.90;;;;;;6240130;23;20119;-70
2022/12/29 01:37:29;;;;;;;7.30;5.18;;;10.60;99.90;;;;;;6241912;23;20098;-71
2022/12/29 01:39:55;;;;;;;8.57;4.78;;;10.60;99.90;;;;;;6241020;23;20094;-70
2022/12/29 01:42:24;;;;;;;8.10;4.65;;;10.60;99.90;;;;;;6242741;23;20016;-70
2022/12/29 01:44:55;;;;;;;8.60;4.95;;;10.60;99.90;;;;;;6242249;22;20009;-71
2022/12/29 01:47:38;;;;;;;7.43;5.00;;;10.60;99.90;;;;;;6240691;23;20016;-71
2022/12/29 01:50:12;;;;;;;8.68;5.30;;;10.60;99.90;;;;;;6239140;23;20020;-71
2022/12/29 01:52:54;;;;;;;7.72;4.68;;;10.60;99.90;;;;;;6241395;23;20008;-71
2022/12/29 01:55:19;;;;;;;7.22;4.82;;;10.60;99.90;;;;;;6242733;22;20043;-71
2022/12/29 01:57:49;;;;;;;7.20;4.75;;;10.60;99.90;;;;;;6242633;22;20391;-72
2022/12/29 02:00:15;;;;;;;6.95;4.63;;;10.70;99.90;;;;;;6240377;23;20094;-71
2022/12/29 02:02:45;;;;;;;6.90;4.63;;;10.70;99.90;;;;;;6242921;23;20098;-71
2022/12/29 02:05:23;;;;;;;7.00;4.50;;;10.70;99.90;;;;;;6242389;22;20015;-71
2022/12/29 02:07:51;;;;;;;7.93;4.55;;;10.70;99.90;;;;;;6242384;23;20016;-71
2022/12/29 02:10:20;;;;;;;6.55;4.20;;;10.70;99.90;;;;;;6240717;23;20334;-71
2022/12/29 02:12:46;;;;;;;6.97;4.18;;;10.70;99.90;;;;;;6240677;23;20090;-71
2022/12/29 02:15:13;;;;;;;6.93;4.38;;;10.70;99.90;;;;;;6239986;23;20438;-71
2022/12/29 02:18:08;;;;;;;7.55;4.32;;;10.70;99.90;;;;;;6242788;22;20044;-71
2022/12/29 02:20:51;;;;;;;7.13;4.18;;;10.70;99.90;;;;;;6240872;23;20043;-71
2022/12/29 02:24:02;;;;;;;6.90;4.00;;;10.70;99.90;;;;;;6239527;23;20012;-71
2022/12/29 02:26:34;;;;;;;7.00;4.00;;;10.70;99.90;;;;;;6237160;23;20019;-71
2022/12/29 02:29:25;;;;;;;6.07;3.95;;;10.70;99.90;;;;;;6241276;23;20012;-71
2022/12/29 02:32:05;;;;;;;6.80;3.92;;;10.70;99.90;;;;;;6241546;23;20012;-71
2022/12/29 02:34:57;;;;;;;6.90;4.25;;;10.70;99.90;;;;;;6239450;23;20019;-71
2022/12/29 02:37:30;;;;;;;6.72;4.22;;;10.70;99.90;;;;;;6242236;22;20338;-71
2022/12/29 02:40:02;;;;;;;6.85;4.30;;;10.70;99.90;;;;;;6242225;22;20519;-71
2022/12/29 02:42:48;;;;;;;7.10;4.15;;;10.70;99.90;;;;;;6241855;23;20012;-71
2022/12/29 02:45:34;;;;;;;7.85;4.18;;;10.70;99.90;;;;;;6241094;23;20027;-71
2022/12/29 02:48:09;;;;;;;7.10;3.70;;;10.70;99.90;;;;;;6240050;23;20017;-71
2022/12/29 02:50:43;;;;;;;6.57;3.70;;;10.70;99.90;;;;;;6242157;23;20345;-71
2022/12/29 02:53:15;;;;;;;6.43;3.80;;;10.70;99.90;;;;;;6239656;23;20016;-71
2022/12/29 02:55:48;;;;;;;6.45;4.03;;;10.70;99.90;;;;;;6240676;23;20079;-71
2022/12/29 02:58:19;;;;;;;6.15;3.75;;;10.70;99.90;;;;;;6241667;22;20016;-71
2022/12/29 03:01:07;;;;;;;6.18;3.70;;;10.70;99.90;;;;;;6241991;22;20437;-71
2022/12/29 03:03:59;;;;;;;6.25;3.55;;;10.70;99.90;;;;;;6240688;23;20016;-71
2022/12/29 03:07:09;;;;;;;6.10;3.25;;;10.70;99.90;;;;;;6241624;23;20043;-71
2022/12/29 03:09:49;;;;;;;5.60;3.13;;;10.70;99.90;;;;;;6241122;23;20086;-71
2022/12/29 03:18:35;;;;;;;5.82;3.20;;;10.60;99.90;;;;;;6242103;23;20016;-71
2022/12/29 03:21:10;;;;;;;4.88;2.72;;;10.60;99.90;;;;;;6235200;23;20016;-71
2022/12/29 03:23:39;;;;;;;5.85;2.85;;;10.60;99.90;;;;;;6239884;23;20020;-71
2022/12/29 03:26:10;;;;;;;5.55;2.50;;;10.60;99.90;;;;;;6239354;23;20225;-70
2022/12/29 03:28:40;;;;;;;4.47;2.33;;;10.60;99.90;;;;;;6215107;23;20016;-71
2022/12/29 03:31:08;;;;;;;5.90;2.45;;;10.60;99.90;;;;;;6241204;22;20012;-71
2022/12/29 03:33:37;;;;;;;5.03;2.65;;;10.60;99.90;;;;;;6242840;22;20004;-71
2022/12/29 03:36:07;;;;;;;6.18;2.60;;;10.60;99.90;;;;;;6239808;23;20019;-71
2022/12/29 03:38:43;;;;;;;5.55;2.50;;;10.60;99.90;;;;;;6240387;23;20016;-70
2022/12/29 03:41:14;;;;;;;6.38;2.60;;;10.60;99.90;;;;;;6241326;23;20345;-70
2022/12/29 03:43:40;;;;;;;4.60;2.38;;;10.60;99.90;;;;;;6241719;23;20019;-71
2022/12/29 03:46:05;;;;;;;4.85;2.42;;;10.60;99.90;;;;;;6242958;23;20372;-71
2022/12/29 03:48:32;;;;;;;6.05;2.90;;;10.60;99.90;;;;;;6243132;23;20341;-70
2022/12/29 03:50:58;;;;;;;5.78;2.78;;;10.60;99.90;;;;;;6244052;22;20080;-71
2022/12/29 03:53:24;;;;;;;5.25;2.40;;;10.60;99.90;;;;;;6243844;22;20044;-71
2022/12/29 03:55:50;;;;;;;6.57;2.80;;;10.60;99.90;;;;;;6243195;22;20330;-71
2022/12/29 03:58:16;;;;;;;5.90;2.50;;;10.60;99.90;;;;;;6243694;22;20020;-71
2022/12/29 04:00:41;;;;;;;6.82;2.58;;;10.60;99.90;;;;;;6242173;23;20019;-71
2022/12/29 04:03:07;;;;;;;7.00;2.75;;;10.60;99.90;;;;;;6241725;23;20330;-71
2022/12/29 04:05:32;;;;;;;5.22;2.50;;;10.60;99.90;;;;;;6244324;23;20012;-71
2022/12/29 04:07:58;;;;;;;6.72;1.98;;;10.60;99.90;;;;;;6243335;23;20449;-71
2022/12/29 04:10:24;;;;;;;5.70;2.15;;;10.60;99.90;;;;;;6243444;23;20012;-71
2022/12/29 04:12:49;;;;;;;6.43;2.20;;;10.60;99.90;;;;;;6242086;23;20081;-71
2022/12/29 04:15:15;;;;;;;3.67;1.40;;;10.50;99.90;;;;;;6241935;23;20457;-71
2022/12/29 04:17:41;;;;;;;5.90;1.90;;;10.50;99.90;;;;;;6241692;23;20023;-71
2022/12/29 04:23:11;;;;;;;5.00;1.50;;;10.50;99.90;;;;;;6241781;23;20050;-71
2022/12/29 04:25:37;;;;;;;5.00;1.70;;;10.40;99.90;;;;;;6240720;23;20051;-71
2022/12/29 04:28:02;;;;;;;4.70;1.70;;;10.40;99.90;;;;;;6241574;23;20016;-71
2022/12/29 04:30:28;;;;;;;6.10;1.90;;;10.40;99.90;;;;;;6241490;23;20016;-71
2022/12/29 04:32:54;;;;;;;6.88;2.28;;;10.40;99.90;;;;;;6243741;23;20435;-71
2022/12/29 04:35:20;;;;;;;4.82;1.92;;;10.40;99.90;;;;;;6242207;23;20017;-71
2022/12/29 04:37:45;;;;;;;6.82;2.30;;;10.40;99.90;;;;;;6241741;23;20314;-71
2022/12/29 04:40:11;;;;;;;8.07;2.30;;;10.40;99.90;;;;;;6241840;23;20022;-71
2022/12/29 04:42:37;;;;;;;7.03;2.22;;;10.40;99.90;;;;;;6241877;23;20015;-71
2022/12/29 04:45:02;;;;;;;6.32;1.98;;;10.30;99.90;;;;;;6242655;23;20011;-71
2022/12/29 04:47:28;;;;;;;4.75;2.00;;;10.30;99.90;;;;;;6242890;23;20321;-71
2022/12/29 04:49:54;;;;;;;5.82;1.95;;;10.30;99.90;;;;;;6243584;23;20483;-71
2022/12/29 04:52:19;;;;;;;7.15;1.88;;;10.20;99.90;;;;;;6242867;23;20020;-71
2022/12/29 04:54:45;;;;;;;8.10;1.90;;;10.30;99.90;;;;;;6240421;23;20015;-70
2022/12/29 04:57:10;;;;;;;8.07;2.20;;;10.30;99.90;;;;;;6216254;23;20090;-71
2022/12/29 04:59:36;;;;;;;10.85;2.33;;;10.20;99.90;;;;;;6242272;23;20020;-71
2022/12/29 05:02:01;;;;;;;9.10;2.40;;;10.20;99.90;;;;;;6242253;23;20083;-71
2022/12/29 05:04:27;;;;;;;9.10;2.00;;;10.20;99.90;;;;;;6243309;23;20012;-71
2022/12/29 05:06:53;;;;;;;10.23;2.13;;;10.20;99.90;;;;;;6243266;23;20012;-71
2022/12/29 05:09:18;;;;;;;8.68;2.10;;;10.20;99.90;;;;;;6240609;23;20016;-71
2022/12/29 05:11:44;;;;;;;9.50;2.20;;;10.10;99.90;;;;;;6243053;23;20019;-71
2022/12/29 05:14:09;;;;;;;11.18;2.15;;;10.10;99.90;;;;;;6243544;22;20020;-71
2022/12/29 05:16:35;;;;;;;9.95;2.30;;;10.10;99.90;;;;;;6242744;23;20015;-71
2022/12/29 05:19:00;;;;;;;7.82;2.38;;;10.10;99.90;;;;;;6243605;23;20008;-71
2022/12/29 05:21:26;;;;;;;6.93;2.00;;;10.10;99.90;;;;;;6242859;23;20008;-71
2022/12/29 05:23:52;;;;;;;9.55;2.00;;;10.10;99.90;;;;;;6240471;23;20384;-71
2022/12/29 05:26:17;;;;;;;7.97;1.83;;;10.00;99.90;;;;;;6241242;23;20062;-71
2022/12/29 05:28:43;;;;;;;9.23;2.13;;;10.00;99.90;;;;;;6241447;23;20031;-72
2022/12/29 05:31:08;;;;;;;8.93;2.15;;;10.00;99.90;;;;;;6241703;23;20024;-71
2022/12/29 05:33:34;;;;;;;9.18;2.05;;;10.00;99.90;;;;;;6241324;23;20023;-71
2022/12/29 05:36:08;;;;;;;7.68;2.05;;;10.00;99.90;;;;;;6242421;23;20333;-71
2022/12/29 05:38:34;;;;;;;8.48;1.70;;;10.00;99.90;;;;;;6242345;22;20044;-71
2022/12/29 05:41:00;;;;;;;5.95;1.70;;;9.90;99.90;;;;;;6241246;23;20077;-71
2022/12/29 05:43:25;;;;;;;6.03;1.80;;;10.00;99.90;;;;;;6242775;23;20012;-71
2022/12/29 05:45:52;;;;;;;6.80;1.90;;;9.90;99.90;;;;;;6242263;23;20019;-71
2022/12/29 05:48:18;;;;;;;8.23;2.20;;;9.90;99.90;;;;;;6242921;22;20362;-71
2022/12/29 05:50:48;;;;;;;7.82;2.10;;;9.90;99.90;;;;;;6241207;23;20016;-71
2022/12/29 05:53:14;;;;;;;6.65;2.10;;;9.90;99.90;;;;;;6242254;22;20019;-71
2022/12/29 05:55:40;;;;;;;7.97;2.30;;;9.90;99.90;;;;;;6241433;23;20020;-71
2022/12/29 05:58:05;;;;;;;7.28;2.45;;;9.90;99.90;;;;;;6240547;23;20020;-71
2022/12/29 06:00:31;;;;;;;7.10;2.28;;;9.80;99.90;;;;;;6240771;23;20012;-71
2022/12/29 06:02:56;;;;;;;9.35;2.40;;;9.80;99.90;;;;;;6242706;22;20376;-71
2022/12/29 06:05:22;;;;;;;8.48;2.42;;;9.90;99.90;;;;;;6240242;23;20012;-71
2022/12/29 06:07:48;;;;;;;7.63;2.15;;;9.80;99.90;;;;;;6240580;23;20019;-71
2022/12/29 06:10:13;;;;;;;8.55;2.35;;;9.80;99.90;;;;;;6242553;23;20012;-71
2022/12/29 06:12:39;;;;;;;9.80;2.30;;;9.80;99.90;;;;;;6242917;23;20022;-71
2022/12/29 06:15:05;;;;;;;9.25;2.30;;;9.80;99.90;;;;;;6239980;23;20054;-71
2022/12/29 06:17:31;;;;;;;11.10;2.53;;;9.80;99.90;;;;;;6242791;22;20023;-71
2022/12/29 06:19:56;;;;;;;8.65;2.35;;;9.70;99.90;;;;;;6240760;23;20012;-71
2022/12/29 06:22:22;;;;;;;8.68;2.22;;;9.70;99.90;;;;;;6240881;23;20094;-71
2022/12/29 06:24:47;;;;;;;8.98;2.15;;;9.70;99.90;;;;;;6215084;23;20024;-71
2022/12/29 06:27:13;;;;;;;11.00;2.90;;;9.70;99.90;;;;;;6242603;23;20563;-71
2022/12/29 06:29:40;;;;;;;8.55;2.33;;;9.70;99.90;;;;;;6240491;23;20024;-71
2022/12/29 06:32:06;;;;;;;11.15;2.33;;;9.70;99.90;;;;;;6242144;22;20012;-71
2022/12/29 06:34:32;;;;;;;9.52;2.15;;;9.70;99.90;;;;;;6242269;22;20011;-71
2022/12/29 06:36:58;;;;;;;10.25;2.45;;;9.70;99.90;;;;;;6241767;22;20740;-71
2022/12/29 06:39:23;;;;;;;10.93;2.90;;;9.80;99.90;;;;;;6242323;22;20016;-71
2022/12/29 06:41:52;;;;;;;8.55;2.25;;;9.80;99.90;;;;;;6241941;23;20035;-71
2022/12/29 06:44:18;;;;;;;10.30;2.30;;;9.80;99.90;;;;;;6241940;22;20019;-71
2022/12/29 06:46:43;;;;;;;10.40;2.47;;;9.80;99.90;;;;;;6240740;23;20469;-71
2022/12/29 06:49:09;;;;;;;9.15;2.30;;;9.80;99.90;;;;;;6241142;23;20012;-71
2022/12/29 06:51:35;;;;;;;7.93;2.45;;;9.80;99.90;;;;;;6242384;23;20008;-71
2022/12/29 06:54:00;;;;;;;7.85;2.42;;;9.80;99.90;;;;;;6241469;23;20019;-71
2022/12/29 06:56:26;;;;;;;9.95;2.65;;;9.80;99.90;;;;;;6236205;23;20032;-72
2022/12/29 06:58:51;;;;;;;9.27;2.30;;;9.80;99.90;;;;;;6240381;23;20012;-72
2022/12/29 07:01:17;;;;;;;9.52;2.50;;;9.80;99.90;;;;;;6241693;23;20702;-72
2022/12/29 07:03:43;;;;;;;9.73;2.40;;;9.80;99.90;;;;;;6241619;23;20439;-71
2022/12/29 07:06:08;;;;;;;12.48;2.50;;;9.80;99.90;;;;;;6239947;23;20091;-72
2022/12/29 07:08:34;;;;;;;7.28;2.25;;;9.80;99.90;;;;;;6240942;23;20044;-71
2022/12/29 07:10:59;;;;;;;11.07;2.53;;;9.80;99.90;;;;;;6239506;23;20089;-71
2022/12/29 07:13:25;;;;;;;9.07;2.13;;;9.80;99.90;;;;;;6240708;23;20011;-71
2022/12/29 07:15:50;;;;;;;11.18;2.50;;;9.80;99.90;;;;;;6239530;23;20016;-71
2022/12/29 07:18:16;;;;;;;10.10;2.50;;;9.80;99.90;;;;;;6240547;23;20582;-71
2022/12/29 07:20:42;;;;;;;11.88;2.60;;;9.80;99.90;;;;;;6241395;23;20074;-71
2022/12/29 07:23:07;;;;;;;8.95;2.08;;;9.80;99.90;;;;;;6239490;23;20019;-71
2022/12/29 07:25:35;;;;;;;12.98;3.05;;;9.70;99.90;;;;;;6212935;23;20012;-71
2022/12/29 07:28:01;;;;;;;9.20;2.42;;;9.80;99.90;;;;;;6239098;23;20038;-71
2022/12/29 07:30:27;;;;;;;11.27;3.17;;;9.80;99.90;;;;;;6240103;23;20016;-71
2022/12/29 07:32:52;;;;;;;11.70;2.70;;;9.80;99.90;;;;;;6239687;23;20015;-71
2022/12/29 07:35:18;;;;;;;9.73;2.22;;;9.80;99.90;;;;;;6239845;23;20034;-71
2022/12/29 07:37:44;;;;;;;11.52;2.33;;;9.80;99.90;;;;;;6242625;23;20016;-71
2022/12/29 07:40:10;;;;;;;12.02;2.58;;;9.80;99.90;;;;;;6240336;23;20087;-71
2022/12/29 07:42:36;;;;;;;12.25;3.17;;;9.80;99.90;;;;;;6242746;23;20058;-70
2022/12/29 07:45:01;;;;;;;10.68;2.33;;;9.80;99.90;;;;;;6241963;23;20454;-71
2022/12/29 07:47:27;;;;;;;11.70;2.55;;;9.80;99.90;;;;;;6241479;22;20091;-71
2022/12/29 07:49:52;;;;;;;13.82;3.20;;;9.70;99.90;;;;;;6239437;23;20008;-71
2022/12/29 07:52:18;;;;;;;10.73;2.50;;;9.70;99.90;;;;;;6240307;23;20070;-71
2022/12/29 07:54:44;;;;;;;10.18;2.55;;;9.80;99.90;;;;;;6239052;23;20023;-72
2022/12/29 07:57:09;;;;;;;9.75;2.22;;;9.70;99.90;;;;;;6241358;22;20016;-71
2022/12/29 07:59:35;;;;;;;12.88;2.50;;;9.70;99.90;;;;;;6239703;23;20035;-71
2022/12/29 08:02:01;;;;;;;11.88;2.45;;;9.70;99.90;;;;;;6239657;23;20366;-70
2022/12/29 08:04:26;;;;;;;11.95;2.67;;;9.70;99.90;;;;;;6240544;23;20023;-71
2022/12/29 08:06:52;;;;;;;13.73;2.83;;;9.70;99.90;;;;;;6240550;23;20018;-70
2022/12/29 08:09:18;;;;;;;12.40;3.08;;;9.70;99.90;;;;;;6241506;23;20455;-71
2022/12/29 08:11:44;;;;;;;10.80;2.92;;;9.70;99.90;;;;;;6240349;23;20013;-71
2022/12/29 08:14:10;;;;;;;14.65;3.35;;;9.70;99.90;;;;;;6239980;22;20437;-71
2022/12/29 08:16:35;;;;;;;11.68;3.00;;;9.70;99.90;;;;;;6238136;23;20070;-71
2022/12/29 08:19:03;;;;;;;13.82;3.28;;;9.70;99.90;;;;;;6238663;23;20065;-72
2022/12/29 08:21:28;;;;;;;11.40;3.08;;;9.70;99.90;;;;;;6237713;23;20190;-70
2022/12/29 08:23:54;;;;;;;15.32;3.22;;;9.70;99.90;;;;;;6211873;23;20019;-71
2022/12/29 08:26:20;;;;;;;14.80;3.38;;;9.60;99.90;;;;;;6238444;23;20181;-71
2022/12/29 08:28:45;;;;;;;12.60;3.38;;;9.70;99.90;;;;;;6239781;23;20063;-72
2022/12/29 08:31:11;;;;;;;13.65;3.25;;;9.70;99.90;;;;;;6241904;23;20475;-71
2022/12/29 08:33:37;;;;;;;15.07;3.78;;;9.70;99.90;;;;;;6241790;23;20058;-72
2022/12/29 08:36:06;;;;;;;12.05;3.22;;;9.70;99.90;;;;;;6242230;23;20433;-72
2022/12/29 08:38:32;;;;;;;14.98;3.75;;;9.70;99.90;;;;;;6243594;22;20016;-70
2022/12/29 08:40:59;;;;;;;14.20;3.45;;;9.70;99.90;;;;;;6240482;23;20097;-70
2022/12/29 08:43:26;;;;;;;14.73;3.75;;;9.70;99.90;;;;;;6239009;22;20020;-69
2022/12/29 08:45:52;;;;;;;13.23;3.10;;;9.70;99.90;;;;;;6239811;23;20381;-71
2022/12/29 08:48:19;;;;;;;13.27;3.30;;;9.70;99.90;;;;;;6240824;23;20016;-70
2022/12/29 08:50:45;;;;;;;11.32;2.90;;;9.70;99.90;;;;;;6242476;22;20055;-70
2022/12/29 08:53:11;;;;;;;16.13;3.92;;;9.70;99.90;;;;;;6242969;22;20019;-69
2022/12/29 08:55:37;;;;;;;13.63;3.03;;;9.70;99.90;;;;;;6242146;23;20016;-70
2022/12/29 08:58:02;;;;;;;12.95;2.80;;;9.70;99.90;;;;;;6241684;23;20654;-70
2022/12/29 09:00:28;;;;;;;12.57;3.25;;;9.70;99.90;;;;;;6242267;23;20016;-70
2022/12/29 09:02:54;;;;;;;10.45;2.90;;;9.80;99.90;;;;;;6240125;23;20393;-70
2022/12/29 09:05:19;;;;;;;10.05;2.60;;;9.80;99.90;;;;;;6240883;23;20103;-71
2022/12/29 09:07:45;;;;;;;10.70;3.00;;;9.80;99.90;;;;;;6240064;23;20012;-68
2022/12/29 09:10:11;;;;;;;10.82;2.80;;;9.80;99.90;;;;;;6238357;23;20018;-69
2022/12/29 09:12:36;;;;;;;12.32;3.53;;;9.80;99.90;;;;;;6241701;22;20034;-71
2022/12/29 09:15:02;;;;;;;12.45;2.70;;;9.80;99.90;;;;;;6242144;23;20015;-70
2022/12/29 09:17:44;;;;;;;10.73;2.75;;;9.80;99.90;;;;;;6242887;22;20049;-69
2022/12/29 09:20:11;;;;;;;12.60;3.50;;;9.80;99.90;;;;;;6241362;22;20042;-70
2022/12/29 09:22:37;;;;;;;11.20;3.00;;;9.80;99.90;;;;;;6242398;22;20015;-70
2022/12/29 09:25:03;;;;;;;11.30;3.05;;;9.80;99.90;;;;;;6241863;23;20004;-71
2022/12/29 09:27:29;;;;;;;12.13;2.78;;;9.80;99.90;;;;;;6242818;22;20012;-70
2022/12/29 09:29:55;;;;;;;12.45;3.13;;;9.80;99.90;;;;;;6242326;22;20045;-70
2022/12/29 09:32:21;;;;;;;10.85;3.03;;;9.80;99.90;;;;;;6243579;22;20358;-71
2022/12/29 09:34:47;;;;;;;12.80;3.03;;;9.70;99.90;;;;;;6243381;22;20082;-70
2022/12/29 09:37:12;;;;;;;10.13;2.42;;;9.80;99.90;;;;;;6242911;23;20469;-70
2022/12/29 09:39:38;;;;;;;11.63;2.92;;;9.70;99.90;;;;;;6243412;23;20008;-70
2022/12/29 09:42:15;;;;;;;11.18;2.90;;;9.80;99.90;;;;;;6242260;23;20028;-70
2022/12/29 09:44:53;;;;;;;11.13;2.95;;;9.80;99.90;;;;;;6241332;23;20012;-70
2022/12/29 09:47:20;;;;;;;11.55;3.20;;;9.70;99.90;;;;;;6242751;23;20016;-70
2022/12/29 09:49:58;;;;;;;12.95;3.05;;;9.70;99.90;;;;;;6241118;23;20019;-70
2022/12/29 09:52:30;;;;;;;11.65;2.80;;;9.70;99.90;;;;;;6242055;22;20074;-70
2022/12/29 09:55:05;;;;;;;11.15;2.97;;;9.70;99.90;;;;;;6240959;22;20012;-70
2022/12/29 09:57:41;;;;;;;13.52;3.08;;;9.70;99.90;;;;;;6242844;22;20015;-70
2022/12/29 10:00:19;;;;;;;13.80;2.85;;;9.70;99.90;;;;;;6241153;22;20012;-70
2022/12/29 10:02:54;;;;;;;11.18;2.88;;;9.70;99.90;;;;;;6241560;23;20015;-71
2022/12/29 10:05:30;;;;;;;11.95;3.33;;;9.70;99.90;;;;;;6241351;22;20012;-70
2022/12/29 10:08:33;;;;;;;9.85;3.00;;;9.70;99.90;;;;;;6243400;22;20043;-70
2022/12/29 10:11:18;;;;;;;11.25;3.33;;;9.70;99.90;;;;;;6239772;23;20008;-70
2022/12/29 10:13:56;;;;;;;10.07;2.97;;;9.70;99.90;;;;;;6239996;23;20012;-70
2022/12/29 10:17:02;;;;;;;13.43;3.58;;;9.60;99.90;;;;;;6241267;23;20016;-70
2022/12/29 10:20:06;;;;;;;13.05;3.33;;;9.70;99.90;;;;;;6243065;22;20019;-71
2022/12/29 10:23:01;;;;;;;12.13;2.80;;;9.70;99.90;;;;;;6240503;23;20054;-70
2022/12/29 10:25:30;;;;;;;11.40;2.90;;;9.60;99.90;;;;;;6234451;23;20087;-70
2022/12/29 10:28:01;;;;;;;10.50;2.90;;;9.60;99.90;;;;;;6240364;23;20074;-70
2022/12/29 10:30:28;;;;;;;10.98;2.58;;;9.60;99.90;;;;;;6242502;22;20020;-70
2022/12/29 10:33:00;;;;;;;11.20;3.17;;;9.70;99.90;;;;;;6241413;23;20028;-70
2022/12/29 10:35:32;;;;;;;10.05;2.75;;;9.60;99.90;;;;;;6242961;22;20016;-70
2022/12/29 10:38:04;;;;;;;12.07;3.05;;;9.70;99.90;;;;;;6242352;22;20044;-70
2022/12/29 10:40:38;;;;;;;13.15;3.15;;;9.60;99.90;;;;;;6242327;22;20070;-70
2022/12/29 10:43:24;;;;;;;12.57;2.90;;;9.60;99.90;;;;;;6242146;22;20388;-70
2022/12/29 10:45:56;;;;;;;10.13;2.97;;;9.70;99.90;;;;;;6242827;22;20386;-70
2022/12/29 10:48:30;;;;;;;9.52;2.90;;;9.70;99.90;;;;;;6240123;23;20047;-70
2022/12/29 10:50:58;;;;;;;10.95;2.50;;;9.60;99.90;;;;;;6242425;22;20433;-71
2022/12/29 10:53:29;;;;;;;9.43;2.67;;;9.60;99.90;;;;;;6242604;22;20020;-70
2022/12/29 10:55:55;;;;;;;12.27;3.30;;;9.60;99.90;;;;;;6239484;23;20079;-71
2022/12/29 10:58:22;;;;;;;9.23;2.88;;;9.60;99.90;;;;;;6241307;23;20440;-71
2022/12/29 11:00:53;;;;;;;10.88;2.83;;;9.70;99.90;;;;;;6242583;22;20012;-71
2022/12/29 11:03:28;;;;;;;10.70;2.75;;;9.60;99.90;;;;;;6242379;22;20065;-70
2022/12/29 11:06:12;;;;;;;12.23;3.47;;;9.60;99.90;;;;;;6240666;23;20018;-70
2022/12/29 11:08:45;;;;;;;11.27;3.13;;;9.60;99.90;;;;;;6242970;22;20012;-70
2022/12/29 11:11:10;;;;;;;11.13;3.05;;;9.70;99.90;;;;;;6241411;22;20008;-70
2022/12/29 11:13:50;;;;;;;12.50;2.92;;;9.70;99.90;;;;;;6242657;23;20091;-71
2022/12/29 11:16:30;;;;;;;9.40;2.50;;;9.70;99.90;;;;;;6242136;22;20008;-71
2022/12/29 11:18:56;;;;;;;9.93;2.70;;;9.70;99.90;;;;;;6242295;22;20389;-71
2022/12/29 11:21:33;;;;;;;10.98;2.42;;;9.70;99.90;;;;;;6242647;23;20008;-71
2022/12/29 11:24:02;;;;;;;7.68;2.63;;;9.70;99.90;;;;;;6241242;22;20031;-70
2022/12/29 11:26:30;;;;;;;9.95;2.75;;;9.70;99.90;;;;;;6241941;22;20012;-71
2022/12/29 11:29:08;;;;;;;9.55;2.70;;;9.70;99.90;;;;;;6239032;23;20020;-70
2022/12/29 11:31:45;;;;;;;10.05;2.80;;;9.70;99.90;;;;;;6242901;23;20032;-71
2022/12/29 11:34:34;;;;;;;13.00;3.38;;;9.70;99.90;;;;;;6242414;22;20019;-71
2022/12/29 11:37:06;;;;;;;11.15;3.08;;;9.70;99.90;;;;;;6240017;23;20012;-71
2022/12/29 11:39:31;;;;;;;;;;;9.70;99.90;;;;;;6241765;22;20338;-71
2022/12/29 11:41:57;;;;;;;13.02;3.20;;;9.70;99.90;;;;;;6240869;23;19923;-71
2022/12/29 11:44:23;;;;;;;10.75;3.40;;;9.70;99.90;;;;;;6240401;23;20014;-71
2022/12/29 11:46:51;;;;;;;13.70;3.97;;;9.70;99.90;;;;;;6241556;22;20004;-70
2022/12/29 11:49:23;;;;;;;12.88;3.75;;;9.80;99.90;;;;;;6241787;22;20074;-71
2022/12/29 11:51:51;;;;;;;12.70;3.55;;;9.80;99.90;;;;;;6242413;22;20079;-71
2022/12/29 11:54:32;;;;;;;13.57;3.72;;;9.80;99.90;;;;;;6240760;22;20015;-70
2022/12/29 11:57:08;;;;;;;11.75;3.78;;;9.80;99.90;;;;;;6239981;23;20377;-70
2022/12/29 11:59:40;;;;;;;13.32;3.85;;;9.90;99.90;;;;;;6242080;22;20126;-70
2022/12/29 12:02:29;;;;;;;15.68;3.92;;;9.90;99.90;;;;;;6241710;22;20008;-71
2022/12/29 12:05:16;;;;;;;11.65;3.40;;;9.90;99.90;;;;;;6208529;23;20012;-70
2022/12/29 12:07:49;;;;;;;12.18;3.42;;;9.90;99.90;;;;;;6210373;23;20016;-71
2022/12/29 12:10:32;;;;;;;13.25;3.30;;;9.90;99.90;;;;;;6209649;23;20016;-70
2022/12/29 12:13:05;;;;;;;13.55;4.05;;;9.90;99.90;;;;;;6210564;23;20019;-71
2022/12/29 12:15:47;;;;;;;14.02;3.83;;;9.90;99.90;;;;;;6185598;23;20023;-71
2022/12/29 12:18:18;;;;;;;14.82;3.90;;;9.90;99.90;;;;;;6185417;23;20017;-72
2022/12/29 12:21:13;;;;;;;16.85;3.45;;;9.90;99.90;;;;;;6210582;23;20093;-71
2022/12/29 12:24:02;;;;;;;13.75;4.15;;;9.90;99.90;;;;;;6210523;23;20016;-71
2022/12/29 12:26:48;;;;;;;15.55;4.20;;;9.80;99.90;;;;;;6185255;23;20048;-71
2022/12/29 12:29:20;;;;;;;14.27;3.30;;;9.80;99.90;;;;;;6194976;23;20067;-71
2022/12/29 12:31:54;;;;;;;13.13;3.90;;;9.70;99.90;;;;;;6185685;23;20087;-71
2022/12/29 12:34:43;;;;;;;16.00;4.10;;;9.70;99.90;;;;;;6210893;23;20051;-71
2022/12/29 12:37:41;;;;;;;16.50;4.15;;;9.70;99.90;;;;;;6210071;23;20013;-71
2022/12/29 12:40:43;;;;;;;14.00;3.97;;;9.70;99.90;;;;;;6184444;23;20024;-71
2022/12/29 12:43:30;;;;;;;14.82;4.35;;;9.70;99.90;;;;;;6242519;23;20373;-71
2022/12/29 12:46:12;;;;;;;16.98;4.05;;;9.70;99.90;;;;;;6244039;22;20337;-71
2022/12/29 12:49:07;;;;;;;16.70;4.35;;;9.70;99.90;;;;;;6244224;23;20013;-71
2022/12/29 12:52:10;;;;;;;14.95;4.43;;;9.80;99.90;;;;;;6243966;22;20315;-71
2022/12/29 12:54:46;;;;;;;14.40;4.65;;;9.70;99.90;;;;;;6242555;23;20019;-71
2022/12/29 12:57:27;;;;;;;15.98;4.20;;;9.70;99.90;;;;;;6241990;23;20468;-71
2022/12/29 13:00:23;;;;;;;16.50;4.18;;;9.70;99.90;;;;;;6242078;23;20054;-71
2022/12/29 13:03:13;;;;;;;15.30;3.88;;;9.60;99.90;;;;;;6241514;23;20023;-71
2022/12/29 13:05:51;;;;;;;16.48;4.43;;;9.70;99.90;;;;;;6242648;23;20080;-71
2022/12/29 13:08:34;;;;;;;15.00;3.88;;;9.70;99.90;;;;;;6242006;23;20012;-72
2022/12/29 13:11:15;;;;;;;14.90;4.28;;;9.70;99.90;;;;;;6241338;23;20065;-70
2022/12/29 13:13:56;;;;;;;14.85;3.90;;;9.70;99.90;;;;;;6241349;23;20315;-69
2022/12/29 13:16:40;;;;;;;11.57;3.45;;;9.70;99.90;;;;;;6241938;23;20385;-69
2022/12/29 13:19:28;;;;;;;15.32;3.97;;;9.70;99.90;;;;;;6243466;23;20024;-72
2022/12/29 13:22:09;;;;;;;16.60;5.20;;;9.70;99.90;;;;;;6240578;23;20052;-69
2022/12/29 13:24:53;;;;;;;14.73;4.35;;;9.60;99.90;;;;;;6243503;22;20016;-70
2022/12/29 13:27:56;;;;;;;16.23;5.03;;;9.60;99.90;;;;;;6242923;23;20012;-69
2022/12/29 13:30:44;;;;;;;13.95;3.88;;;9.60;99.90;;;;;;6243147;22;20012;-69
2022/12/29 13:33:44;;;;;;;12.95;3.47;;;9.60;99.90;;;;;;6243476;22;20058;-69
2022/12/29 13:36:29;;;;;;;13.48;3.20;;;9.60;99.90;;;;;;6242962;23;20012;-69
2022/12/29 13:39:10;;;;;;;14.35;3.67;;;9.60;99.90;;;;;;6243029;22;20039;-69
2022/12/29 13:41:57;;;;;;;13.63;4.13;;;9.60;99.90;;;;;;6241312;23;20016;-69
2022/12/29 13:44:40;;;;;;;13.77;4.28;;;9.60;99.90;;;;;;6243456;22;20008;-69
2022/12/29 13:47:18;;;;;;;14.00;3.70;;;9.50;99.90;;;;;;6240968;23;20016;-69